Time;durP1;ratioP1;P1;durP2;ratioP2;P2;SDS_P1;SDS_P2;PMS_P1;PMS_P2;Temp;Humidity;BMP_temperature;BMP_pressure;BME280_temperature;BME280_humidity;BME280_pressure;Samples;Min_cycle;Max_cycle;Signal;HPM_P1;HPM_P2
2022/10/09 00:00:44;;;;;;;2.10;1.90;;;9.80;99.90;;;;;;5028123;28;20634;-81
2022/10/09 00:03:11;;;;;;;3.27;2.40;;;9.60;99.90;;;;;;5023736;28;20624;-80
2022/10/09 00:05:38;;;;;;;3.20;2.80;;;9.40;99.90;;;;;;5008112;28;20655;-80
2022/10/09 00:08:05;;;;;;;4.20;2.97;;;9.40;99.90;;;;;;5007089;28;20720;-79
2022/10/09 00:10:32;;;;;;;4.00;2.63;;;9.30;99.90;;;;;;5008353;28;20626;-81
2022/10/09 00:12:58;;;;;;;2.90;2.13;;;9.30;99.90;;;;;;5007461;28;20664;-80
2022/10/09 00:15:27;;;;;;;6.03;3.30;;;9.20;99.90;;;;;;5008291;28;20619;-80
2022/10/09 00:17:53;;;;;;;6.23;2.63;;;9.10;99.90;;;;;;5026497;28;20831;-80
2022/10/09 00:20:20;;;;;;;2.83;2.27;;;8.80;99.90;;;;;;5027644;28;20624;-80
2022/10/09 00:22:47;;;;;;;2.30;2.10;;;9.00;99.90;;;;;;5027307;28;21042;-80
2022/10/09 00:25:14;;;;;;;2.80;2.40;;;8.90;99.90;;;;;;5027711;28;20627;-81
2022/10/09 00:27:41;;;;;;;2.13;1.80;;;8.90;99.90;;;;;;5027214;28;20647;-80
2022/10/09 00:30:09;;;;;;;1.97;1.83;;;8.90;99.90;;;;;;5027884;28;20637;-80
2022/10/09 00:32:37;;;;;;;2.53;2.43;;;8.90;99.90;;;;;;5027907;28;20629;-80
2022/10/09 00:35:04;;;;;;;2.30;2.10;;;8.80;99.90;;;;;;5027733;28;20627;-80
2022/10/09 00:37:31;;;;;;;4.67;3.37;;;8.70;99.90;;;;;;5027539;28;21173;-81
2022/10/09 00:39:58;;;;;;;3.00;2.70;;;8.80;99.90;;;;;;5027513;28;20623;-80
2022/10/09 00:42:25;;;;;;;2.70;2.10;;;8.70;99.90;;;;;;5028234;28;20633;-79
2022/10/09 00:44:56;;;;;;;2.30;2.07;;;8.70;99.90;;;;;;5027601;28;21168;-80
2022/10/09 00:47:27;;;;;;;2.40;2.10;;;8.60;99.90;;;;;;5027414;28;20615;-80
2022/10/09 00:49:59;;;;;;;2.90;2.70;;;8.60;99.90;;;;;;5027684;28;20685;-80
2022/10/09 00:52:27;;;;;;;2.23;1.80;;;8.70;99.90;;;;;;5027508;28;20627;-81
2022/10/09 00:54:55;;;;;;;12.77;2.53;;;8.70;99.90;;;;;;5027744;28;21185;-80
2022/10/09 00:57:21;;;;;;;2.37;2.17;;;8.70;99.90;;;;;;5027634;28;20625;-80
2022/10/09 00:59:48;;;;;;;2.70;2.20;;;8.70;99.90;;;;;;5027516;28;20627;-79
2022/10/09 01:02:15;;;;;;;1.77;1.67;;;8.70;99.90;;;;;;5027211;28;20627;-79
2022/10/09 01:04:42;;;;;;;10.33;3.33;;;8.60;99.90;;;;;;5010951;28;20627;-80
2022/10/09 01:07:21;;;;;;;2.37;1.93;;;8.60;99.90;;;;;;5007099;28;20630;-80
2022/10/09 01:09:55;;;;;;;2.37;1.93;;;8.60;99.90;;;;;;5010636;28;20643;-79
2022/10/09 01:12:29;;;;;;;2.23;2.03;;;8.40;99.90;;;;;;5012140;28;20615;-80
2022/10/09 01:15:07;;;;;;;3.90;2.23;;;8.40;99.90;;;;;;5011722;28;20692;-80
2022/10/09 01:17:38;;;;;;;2.80;2.43;;;8.30;99.90;;;;;;5028405;28;20658;-80
2022/10/09 01:20:37;;;;;;;2.10;1.90;;;8.20;99.90;;;;;;5031695;28;20976;-79
2022/10/09 01:23:40;;;;;;;2.50;1.70;;;8.30;99.90;;;;;;5031653;28;20626;-79
2022/10/09 01:26:21;;;;;;;1.90;1.70;;;8.30;99.90;;;;;;5025468;28;20674;-81
2022/10/09 01:28:53;;;;;;;2.30;1.90;;;8.30;99.90;;;;;;5030183;28;20626;-79
2022/10/09 01:31:23;;;;;;;3.00;2.60;;;8.30;99.90;;;;;;5031109;28;20607;-79
2022/10/09 01:33:50;;;;;;;3.20;2.97;;;8.20;99.90;;;;;;5030853;28;21269;-80
2022/10/09 01:36:18;;;;;;;2.70;2.50;;;8.30;99.90;;;;;;5030402;28;20657;-78
2022/10/09 01:38:46;;;;;;;3.40;3.20;;;8.10;99.90;;;;;;5030579;28;20611;-79
2022/10/09 01:41:13;;;;;;;2.87;2.60;;;8.10;99.90;;;;;;5030704;28;20680;-79
2022/10/09 01:43:41;;;;;;;3.80;2.30;;;8.10;99.90;;;;;;5030860;28;20599;-80
2022/10/09 01:46:22;;;;;;;5.43;2.03;;;8.00;99.90;;;;;;5030005;28;21105;-80
2022/10/09 01:48:57;;;;;;;3.30;2.20;;;8.00;99.90;;;;;;5029623;28;20614;-80
2022/10/09 01:51:29;;;;;;;3.67;3.37;;;8.00;99.90;;;;;;5030454;28;20612;-80
2022/10/09 01:54:02;;;;;;;1.88;1.70;;;8.00;99.90;;;;;;5030573;28;21200;-80
2022/10/09 01:56:30;;;;;;;2.47;2.30;;;8.00;99.90;;;;;;5031003;28;20211;-79
2022/10/09 01:59:00;;;;;;;2.17;1.85;;;7.90;99.90;;;;;;5029847;28;20627;-80
2022/10/09 02:01:31;;;;;;;2.67;2.47;;;8.00;99.90;;;;;;5030568;28;20693;-80
2022/10/09 02:04:01;;;;;;;2.23;2.03;;;7.90;99.90;;;;;;5020120;28;20612;-79
2022/10/09 02:06:30;;;;;;;1.90;1.80;;;8.00;99.90;;;;;;5010955;28;20623;-79
2022/10/09 02:08:58;;;;;;;2.65;2.13;;;7.90;99.90;;;;;;5010258;28;20213;-80
2022/10/09 02:11:29;;;;;;;2.20;2.10;;;7.90;99.90;;;;;;5010771;28;20209;-79
2022/10/09 02:13:56;;;;;;;2.63;2.22;;;7.90;99.90;;;;;;5010594;28;20708;-79
2022/10/09 02:16:34;;;;;;;4.33;2.77;;;7.90;99.90;;;;;;5018893;28;20204;-79
2022/10/09 02:19:04;;;;;;;11.70;1.93;;;7.80;99.90;;;;;;5029637;28;20687;-80
2022/10/09 02:21:38;;;;;;;2.20;2.10;;;7.70;99.90;;;;;;5030065;28;20614;-81
2022/10/09 02:24:08;;;;;;;2.08;1.85;;;7.60;99.90;;;;;;5029785;28;20991;-80
2022/10/09 02:26:35;;;;;;;2.63;1.92;;;7.80;99.90;;;;;;5030470;28;20220;-80
2022/10/09 02:29:03;;;;;;;2.92;2.67;;;7.70;99.90;;;;;;5029894;28;20609;-80
2022/10/09 02:31:34;;;;;;;2.63;2.43;;;7.70;99.90;;;;;;5031032;28;20212;-81
2022/10/09 02:34:05;;;;;;;2.65;2.15;;;7.60;99.90;;;;;;5029723;28;20681;-79
2022/10/09 02:36:32;;;;;;;2.17;2.00;;;7.50;99.90;;;;;;5029685;28;20585;-80
2022/10/09 02:38:59;;;;;;;3.78;2.65;;;7.50;99.90;;;;;;5028730;28;20802;-80
2022/10/09 02:41:27;;;;;;;10.85;2.58;;;7.50;99.90;;;;;;5030054;28;20619;-80
2022/10/09 02:43:54;;;;;;;2.65;2.30;;;7.50;99.90;;;;;;5029670;28;20243;-79
2022/10/09 02:46:22;;;;;;;1.73;1.63;;;7.50;99.90;;;;;;5028889;28;20230;-79
2022/10/09 02:48:50;;;;;;;3.17;2.97;;;7.50;99.90;;;;;;5029057;28;20582;-80
2022/10/09 02:51:18;;;;;;;2.03;1.90;;;7.50;99.90;;;;;;5029690;28;20287;-80
2022/10/09 02:53:45;;;;;;;1.02;1.02;;;7.40;99.90;;;;;;5029479;28;20270;-80
2022/10/09 02:56:12;;;;;;;2.63;1.98;;;7.40;99.90;;;;;;5029711;28;20212;-79
2022/10/09 02:58:39;;;;;;;2.45;2.20;;;7.30;99.90;;;;;;5028707;28;20284;-80
2022/10/09 03:01:07;;;;;;;1.98;1.88;;;7.30;99.90;;;;;;5010241;28;20217;-80
2022/10/09 03:03:34;;;;;;;5.35;3.03;;;7.40;99.90;;;;;;5016522;28;20208;-80
2022/10/09 03:06:04;;;;;;;1.67;1.58;;;7.30;99.90;;;;;;5029559;28;20283;-79
2022/10/09 03:08:31;;;;;;;1.98;1.88;;;7.30;99.90;;;;;;5028760;28;20347;-79
2022/10/09 03:10:58;;;;;;;2.47;2.20;;;7.20;99.90;;;;;;5029437;28;20228;-79
2022/10/09 03:13:25;;;;;;;2.17;1.85;;;7.20;99.90;;;;;;5029494;28;20223;-79
2022/10/09 03:15:52;;;;;;;2.05;1.80;;;7.30;99.90;;;;;;5028894;28;20201;-80
2022/10/09 03:18:19;;;;;;;2.65;2.22;;;7.30;99.90;;;;;;5028225;28;20595;-79
2022/10/09 03:20:46;;;;;;;3.45;2.78;;;7.20;99.90;;;;;;5029226;28;20219;-80
2022/10/09 03:23:14;;;;;;;2.10;1.90;;;7.20;99.90;;;;;;5029389;28;20209;-79
2022/10/09 03:25:41;;;;;;;2.22;1.63;;;7.20;99.90;;;;;;5028699;28;20213;-80
2022/10/09 03:28:08;;;;;;;3.58;2.03;;;7.20;99.90;;;;;;5028379;28;20671;-80
2022/10/09 03:30:35;;;;;;;1.85;1.75;;;7.20;99.90;;;;;;5028519;28;20561;-81
2022/10/09 03:33:02;;;;;;;0.80;0.80;;;7.20;99.90;;;;;;5028363;28;20221;-80
2022/10/09 03:35:28;;;;;;;1.65;1.55;;;7.10;99.90;;;;;;5028568;28;20233;-79
2022/10/09 03:37:55;;;;;;;2.42;2.10;;;7.10;99.90;;;;;;5028310;28;20208;-80
2022/10/09 03:40:23;;;;;;;7.72;1.60;;;7.20;99.90;;;;;;5028713;28;20212;-79
2022/10/09 03:42:50;;;;;;;3.13;2.13;;;7.20;99.90;;;;;;5028758;28;20295;-79
2022/10/09 03:45:17;;;;;;;3.67;2.58;;;7.10;99.90;;;;;;5028284;28;20211;-81
2022/10/09 03:47:44;;;;;;;1.40;1.27;;;7.10;99.90;;;;;;5027175;28;20297;-80
2022/10/09 03:50:10;;;;;;;1.15;1.13;;;7.10;99.90;;;;;;5028944;28;20216;-80
2022/10/09 03:52:38;;;;;;;2.35;1.98;;;7.10;99.90;;;;;;5028646;28;20215;-79
2022/10/09 03:55:06;;;;;;;1.85;1.75;;;7.10;99.90;;;;;;5028385;28;20251;-79
2022/10/09 03:57:35;;;;;;;1.90;1.35;;;7.10;99.90;;;;;;5027816;28;20212;-81
2022/10/09 04:00:02;;;;;;;2.17;1.63;;;7.10;99.90;;;;;;5027986;28;20562;-80
2022/10/09 04:02:29;;;;;;;2.03;1.48;;;7.00;99.90;;;;;;5028168;28;20266;-79
2022/10/09 04:04:55;;;;;;;2.70;2.42;;;6.90;99.90;;;;;;5010261;28;20205;-79
2022/10/09 04:07:22;;;;;;;2.75;1.65;;;7.10;99.90;;;;;;5007974;28;20205;-79
2022/10/09 04:09:49;;;;;;;1.40;1.30;;;7.00;99.90;;;;;;5009159;28;20885;-80
2022/10/09 04:12:16;;;;;;;4.88;2.40;;;7.00;99.90;;;;;;5008376;28;20215;-80
2022/10/09 04:14:44;;;;;;;2.00;1.73;;;6.80;99.90;;;;;;5008325;28;20596;-79
2022/10/09 04:17:13;;;;;;;1.88;1.77;;;6.90;99.90;;;;;;5022492;28;20213;-79
2022/10/09 04:19:40;;;;;;;3.60;1.83;;;7.60;99.90;;;;;;5028188;28;20693;-80
2022/10/09 04:22:09;;;;;;;1.13;0.95;;;6.90;99.90;;;;;;5028015;28;20222;-80
2022/10/09 04:24:36;;;;;;;2.58;1.17;;;6.90;99.90;;;;;;5028287;28;20208;-80
2022/10/09 04:27:03;;;;;;;1.20;1.13;;;6.90;99.90;;;;;;5027159;28;20204;-80
2022/10/09 04:29:30;;;;;;;1.30;1.15;;;6.90;99.90;;;;;;5028055;28;20690;-80
2022/10/09 04:31:58;;;;;;;2.28;1.10;;;6.90;99.90;;;;;;5028051;28;20238;-80
2022/10/09 04:34:25;;;;;;;2.35;2.00;;;6.80;99.90;;;;;;5027928;28;20428;-79
2022/10/09 04:36:51;;;;;;;1.10;0.90;;;6.80;99.90;;;;;;5027535;28;20323;-80
2022/10/09 04:39:18;;;;;;;3.33;1.45;;;6.80;99.90;;;;;;5028038;28;20212;-79
2022/10/09 04:41:45;;;;;;;1.80;1.70;;;6.80;99.90;;;;;;5027430;28;20690;-80
2022/10/09 04:44:12;;;;;;;4.30;1.85;;;6.70;99.90;;;;;;5030382;28;20239;-79
2022/10/09 04:46:39;;;;;;;2.50;2.22;;;6.60;99.90;;;;;;5030933;28;20211;-80
2022/10/09 04:49:10;;;;;;;4.10;1.17;;;6.70;99.90;;;;;;5031696;28;20211;-79
2022/10/09 04:51:37;;;;;;;2.58;2.35;;;6.70;99.90;;;;;;5032335;28;20212;-81
2022/10/09 04:54:04;;;;;;;3.00;1.85;;;6.70;99.90;;;;;;5031991;28;20220;-80
2022/10/09 04:56:31;;;;;;;3.17;1.40;;;6.70;99.90;;;;;;5031901;28;20212;-80
2022/10/09 04:58:58;;;;;;;1.40;0.95;;;6.70;99.90;;;;;;5031176;28;20219;-79
2022/10/09 05:01:27;;;;;;;1.20;1.10;;;6.70;99.90;;;;;;5031975;28;20208;-79
2022/10/09 05:03:54;;;;;;;1.85;1.55;;;6.70;99.90;;;;;;5021509;28;20209;-80
2022/10/09 05:06:23;;;;;;;1.77;1.67;;;6.70;99.90;;;;;;5011824;28;20240;-79
2022/10/09 05:08:51;;;;;;;4.53;2.67;;;6.60;99.90;;;;;;5010890;28;20205;-80
2022/10/09 05:11:20;;;;;;;1.83;1.50;;;6.70;99.90;;;;;;5012138;28;20271;-79
2022/10/09 05:13:49;;;;;;;2.80;2.15;;;6.70;99.90;;;;;;5011787;28;20205;-79
2022/10/09 05:16:18;;;;;;;1.20;0.85;;;6.70;99.90;;;;;;5018949;28;20193;-80
2022/10/09 05:18:46;;;;;;;2.35;2.15;;;6.60;99.90;;;;;;5030584;28;20299;-79
2022/10/09 05:21:13;;;;;;;3.25;1.90;;;6.70;99.90;;;;;;5031173;28;20216;-80
2022/10/09 05:23:41;;;;;;;4.15;1.88;;;6.60;99.90;;;;;;5031274;28;20287;-80
2022/10/09 05:26:12;;;;;;;1.45;1.35;;;6.60;99.90;;;;;;5031336;28;20243;-78
2022/10/09 05:28:39;;;;;;;1.48;1.25;;;6.70;99.90;;;;;;5030522;28;20303;-80
2022/10/09 05:31:07;;;;;;;0.80;0.80;;;6.70;99.90;;;;;;5031357;28;20219;-79
2022/10/09 05:33:35;;;;;;;1.25;1.05;;;6.70;99.90;;;;;;5030710;28;20236;-80
2022/10/09 05:36:04;;;;;;;2.05;1.85;;;6.60;99.90;;;;;;5031339;28;20224;-80
2022/10/09 05:38:32;;;;;;;1.35;1.25;;;6.60;99.90;;;;;;5030291;28;20679;-80
2022/10/09 05:41:03;;;;;;;1.50;1.20;;;6.50;99.90;;;;;;5030964;28;20223;-80
2022/10/09 05:43:31;;;;;;;2.58;1.85;;;6.60;99.90;;;;;;5031016;28;20813;-79
2022/10/09 05:46:05;;;;;;;1.05;0.98;;;6.60;99.90;;;;;;5030682;28;20259;-80
2022/10/09 05:48:32;;;;;;;1.55;1.30;;;6.60;99.90;;;;;;5029928;28;20219;-80
2022/10/09 05:51:07;;;;;;;1.35;1.25;;;6.60;99.90;;;;;;5030654;28;20705;-80
2022/10/09 05:53:33;;;;;;;1.42;1.30;;;6.60;99.90;;;;;;5030805;28;20231;-80
2022/10/09 05:56:14;;;;;;;1.35;1.25;;;6.50;99.90;;;;;;5030047;28;20338;-78
2022/10/09 05:58:42;;;;;;;1.13;1.00;;;6.50;99.90;;;;;;5029749;28;20295;-80
2022/10/09 06:01:09;;;;;;;1.10;1.05;;;6.50;99.90;;;;;;5011200;28;20201;-80
2022/10/09 06:03:36;;;;;;;15.95;2.65;;;6.50;99.90;;;;;;5017880;28;20678;-80
2022/10/09 06:06:05;;;;;;;0.85;0.85;;;6.50;99.90;;;;;;5030460;28;20682;-79
2022/10/09 06:08:33;;;;;;;1.20;0.82;;;6.50;99.90;;;;;;5029717;28;20339;-80
2022/10/09 06:11:10;;;;;;;1.52;1.42;;;6.50;99.90;;;;;;5030243;28;20208;-80
2022/10/09 06:13:36;;;;;;;2.15;2.05;;;6.50;99.90;;;;;;5030947;28;20211;-80
2022/10/09 06:16:03;;;;;;;3.55;1.58;;;6.50;99.90;;;;;;5030379;28;20225;-79
2022/10/09 06:18:30;;;;;;;2.35;1.77;;;6.50;99.90;;;;;;5029836;28;20219;-81
2022/10/09 06:20:59;;;;;;;3.72;2.00;;;6.50;99.90;;;;;;5030144;28;20205;-80
2022/10/09 06:23:26;;;;;;;2.70;1.58;;;6.60;99.90;;;;;;5030014;28;20280;-80
2022/10/09 06:25:54;;;;;;;2.95;1.38;;;6.70;99.90;;;;;;5029687;28;20205;-79
2022/10/09 06:28:23;;;;;;;3.05;2.20;;;6.70;99.90;;;;;;5030041;28;20308;-80
2022/10/09 06:30:50;;;;;;;2.08;1.92;;;6.70;99.90;;;;;;5030244;28;20209;-80
2022/10/09 06:33:17;;;;;;;3.67;2.38;;;6.80;99.90;;;;;;5030328;28;20208;-80
2022/10/09 06:35:44;;;;;;;5.65;2.15;;;6.80;99.90;;;;;;5029675;28;20222;-80
2022/10/09 06:38:11;;;;;;;2.58;2.20;;;7.00;99.90;;;;;;5029398;28;20290;-80
2022/10/09 06:40:38;;;;;;;2.53;2.33;;;7.00;99.90;;;;;;5029771;28;20240;-80
2022/10/09 06:43:06;;;;;;;5.60;2.70;;;7.10;99.90;;;;;;5030140;28;20208;-80
2022/10/09 06:45:37;;;;;;;9.13;2.88;;;7.20;99.90;;;;;;5028884;28;20243;-81
2022/10/09 06:48:04;;;;;;;2.38;1.70;;;7.30;99.90;;;;;;5029035;28;20558;-79
2022/10/09 06:50:31;;;;;;;3.75;2.30;;;7.30;99.90;;;;;;5030003;28;20328;-81
2022/10/09 06:52:58;;;;;;;11.32;3.55;;;7.60;99.90;;;;;;5029793;28;20212;-80
2022/10/09 06:55:25;;;;;;;4.43;2.25;;;7.50;99.90;;;;;;5029958;28;20238;-80
2022/10/09 06:57:51;;;;;;;4.18;2.88;;;7.60;99.90;;;;;;5028909;28;20215;-80
2022/10/09 07:00:20;;;;;;;4.05;3.10;;;7.60;99.90;;;;;;5029594;28;20204;-79
2022/10/09 07:02:48;;;;;;;4.20;3.38;;;7.70;99.90;;;;;;5028832;28;20287;-80
2022/10/09 07:05:15;;;;;;;3.03;2.83;;;7.70;99.90;;;;;;5010220;28;20201;-81
2022/10/09 07:07:42;;;;;;;2.97;2.77;;;7.80;99.90;;;;;;5008426;28;20714;-80
2022/10/09 07:10:10;;;;;;;2.25;1.85;;;7.90;99.90;;;;;;5009885;28;20650;-79
2022/10/09 07:12:37;;;;;;;3.47;2.35;;;8.00;99.90;;;;;;5009295;28;20209;-80
2022/10/09 07:15:06;;;;;;;3.70;2.23;;;8.20;99.90;;;;;;5009967;28;20343;-80
2022/10/09 07:17:33;;;;;;;2.00;1.30;;;8.50;99.90;;;;;;5027399;28;20629;-81
2022/10/09 07:20:01;;;;;;;1.53;1.43;;;8.80;99.90;;;;;;5028882;28;20627;-81
2022/10/09 07:22:28;;;;;;;2.17;1.77;;;9.00;99.90;;;;;;5029093;28;21208;-80
2022/10/09 07:24:55;;;;;;;1.70;1.17;;;9.30;99.90;;;;;;5029098;28;20761;-80
2022/10/09 07:27:22;;;;;;;2.10;1.73;;;9.30;99.90;;;;;;5029417;28;20646;-80
2022/10/09 07:29:48;;;;;;;2.10;1.90;;;9.60;99.90;;;;;;5029755;28;20662;-81
2022/10/09 07:32:15;;;;;;;2.60;2.40;;;9.80;99.90;;;;;;5029184;28;20783;-80
2022/10/09 07:34:42;;;;;;;3.20;2.40;;;9.90;99.90;;;;;;5028588;28;20701;-80
2022/10/09 07:37:10;;;;;;;2.33;1.60;;;10.10;99.90;;;;;;5028251;28;20617;-80
2022/10/09 07:39:37;;;;;;;2.37;2.13;;;10.20;99.90;;;;;;5027419;28;20666;-81
2022/10/09 07:42:05;;;;;;;2.60;1.57;;;10.30;99.90;;;;;;5028127;28;20667;-80
2022/10/09 07:44:33;;;;;;;2.50;1.93;;;10.40;99.90;;;;;;5028605;28;20619;-80
2022/10/09 07:47:02;;;;;;;2.57;2.07;;;10.50;99.90;;;;;;5026658;28;20650;-81
2022/10/09 07:49:29;;;;;;;2.37;1.93;;;10.70;99.90;;;;;;5028429;28;20629;-80
2022/10/09 07:51:55;;;;;;;2.37;2.17;;;10.70;99.90;;;;;;5029716;28;20615;-80
2022/10/09 07:54:24;;;;;;;2.40;2.20;;;11.00;99.90;;;;;;5029036;28;20622;-80
2022/10/09 07:56:50;;;;;;;2.33;1.77;;;11.10;99.90;;;;;;5027013;28;20708;-80
2022/10/09 07:59:17;;;;;;;4.60;3.13;;;11.00;99.90;;;;;;5024374;28;20629;-81
2022/10/09 08:01:47;;;;;;;1.43;1.33;;;11.20;99.90;;;;;;5009356;28;20624;-80
2022/10/09 08:04:14;;;;;;;1.37;1.37;;;11.60;99.80;;;;;;5021138;28;20626;-81
2022/10/09 08:06:41;;;;;;;1.93;1.37;;;11.50;99.90;;;;;;5028495;28;20595;-79
2022/10/09 08:09:08;;;;;;;2.73;1.83;;;11.60;99.00;;;;;;5027802;28;21204;-81
2022/10/09 08:11:39;;;;;;;3.20;2.23;;;11.60;99.10;;;;;;5028611;28;20607;-80
2022/10/09 08:14:06;;;;;;;2.50;1.70;;;11.80;99.20;;;;;;5029170;28;20630;-81
2022/10/09 08:16:33;;;;;;;1.90;1.80;;;11.90;97.60;;;;;;5029327;28;20659;-81
2022/10/09 08:19:01;;;;;;;1.93;1.50;;;11.90;97.30;;;;;;5028632;28;20615;-80
2022/10/09 08:21:28;;;;;;;3.50;2.00;;;12.10;97.50;;;;;;5028277;28;20615;-81
2022/10/09 08:23:56;;;;;;;2.20;1.77;;;12.00;97.60;;;;;;5029219;28;20633;-80
2022/10/09 08:26:25;;;;;;;1.40;1.30;;;12.20;96.60;;;;;;5029706;28;21076;-80
2022/10/09 08:28:56;;;;;;;2.50;1.50;;;12.30;96.80;;;;;;5027554;28;21261;-81
2022/10/09 08:31:23;;;;;;;1.53;1.43;;;12.40;96.20;;;;;;5030152;28;20607;-80
2022/10/09 08:33:52;;;;;;;1.80;1.70;;;12.50;95.10;;;;;;5029716;28;20726;-80
2022/10/09 08:36:19;;;;;;;1.63;1.53;;;12.50;95.10;;;;;;5029614;28;20659;-81
2022/10/09 08:38:46;;;;;;;2.50;1.33;;;12.60;95.20;;;;;;5028189;28;20979;-79
2022/10/09 08:41:24;;;;;;;2.50;1.67;;;12.70;94.60;;;;;;5029591;28;20646;-80
2022/10/09 08:43:59;;;;;;;1.70;1.60;;;12.80;94.60;;;;;;5028980;28;20623;-80
2022/10/09 08:46:31;;;;;;;1.10;1.10;;;12.80;95.00;;;;;;5027789;28;20685;-80
2022/10/09 08:48:59;;;;;;;1.60;1.50;;;12.90;95.00;;;;;;5028254;28;21195;-80
2022/10/09 08:51:29;;;;;;;1.60;1.50;;;13.00;95.20;;;;;;5029608;28;20628;-81
2022/10/09 08:54:01;;;;;;;1.00;0.90;;;13.00;94.90;;;;;;5029012;28;20625;-81
2022/10/09 08:56:29;;;;;;;1.77;1.67;;;13.20;94.10;;;;;;5028956;28;20984;-79
2022/10/09 08:58:58;;;;;;;1.53;1.43;;;13.30;94.00;;;;;;5028682;28;20658;-80
2022/10/09 09:01:33;;;;;;;1.67;1.57;;;13.30;93.90;;;;;;5029687;28;20720;-81
2022/10/09 09:04:16;;;;;;;2.03;1.90;;;13.40;93.40;;;;;;5018171;28;21196;-81
2022/10/09 09:06:51;;;;;;;3.23;2.00;;;13.40;93.30;;;;;;5023792;28;20622;-80
2022/10/09 09:09:25;;;;;;;2.43;1.40;;;13.40;94.00;;;;;;5029219;28;20636;-80
2022/10/09 09:11:57;;;;;;;1.33;1.23;;;13.40;93.50;;;;;;5028135;28;20626;-81
2022/10/09 09:14:39;;;;;;;1.07;1.07;;;13.40;94.00;;;;;;5027327;28;21199;-81
2022/10/09 09:17:14;;;;;;;2.50;1.00;;;13.50;94.20;;;;;;5027482;28;20658;-81
2022/10/09 09:19:55;;;;;;;1.70;1.50;;;13.60;93.50;;;;;;5028483;28;20654;-81
2022/10/09 09:22:23;;;;;;;1.97;1.50;;;13.40;93.00;;;;;;5026554;28;20666;-80
2022/10/09 09:24:53;;;;;;;1.60;1.50;;;13.60;93.20;;;;;;5027196;28;20718;-81
2022/10/09 09:27:22;;;;;;;2.00;1.57;;;13.70;93.30;;;;;;5027623;28;20639;-80
2022/10/09 09:29:57;;;;;;;2.10;1.50;;;13.80;92.50;;;;;;5029581;28;20619;-80
2022/10/09 09:32:27;;;;;;;1.23;1.10;;;13.90;92.90;;;;;;5032330;28;20622;-80
2022/10/09 09:35:03;;;;;;;1.00;0.80;;;14.00;92.80;;;;;;5031846;28;20623;-80
2022/10/09 09:37:30;;;;;;;1.40;1.30;;;14.00;92.00;;;;;;5030620;28;20720;-82
2022/10/09 09:39:57;;;;;;;1.40;0.77;;;13.90;91.90;;;;;;5031389;28;20646;-80
2022/10/09 09:42:24;;;;;;;2.50;1.60;;;14.00;91.70;;;;;;5031240;28;20718;-80
2022/10/09 09:44:59;;;;;;;2.10;1.17;;;14.00;90.90;;;;;;5031329;28;20720;-81
2022/10/09 09:47:32;;;;;;;2.67;1.70;;;14.00;91.20;;;;;;5030583;28;20654;-78
2022/10/09 09:50:01;;;;;;;1.37;1.27;;;14.00;91.80;;;;;;5030919;28;20611;-81
2022/10/09 09:52:32;;;;;;;1.00;0.93;;;14.20;90.90;;;;;;5031164;28;21168;-80
2022/10/09 09:54:59;;;;;;;0.90;0.70;;;14.30;91.10;;;;;;5031084;28;20619;-81
2022/10/09 09:57:32;;;;;;;1.00;0.90;;;14.20;90.50;;;;;;5030297;28;20659;-78
2022/10/09 10:00:19;;;;;;;1.17;0.90;;;14.30;91.40;;;;;;5030979;28;20629;-80
2022/10/09 10:02:46;;;;;;;1.97;1.80;;;14.30;89.30;;;;;;5030718;28;20627;-80
2022/10/09 10:05:21;;;;;;;1.70;1.07;;;14.40;89.90;;;;;;5011572;28;20619;-80
2022/10/09 10:07:48;;;;;;;1.80;0.90;;;14.40;89.30;;;;;;5010441;28;20702;-81
2022/10/09 10:10:18;;;;;;;1.53;1.10;;;14.40;89.10;;;;;;5010791;28;20632;-81
2022/10/09 10:12:47;;;;;;;2.17;1.50;;;14.40;89.60;;;;;;5011103;28;20626;-81
2022/10/09 10:15:24;;;;;;;0.70;0.70;;;14.50;89.50;;;;;;5011231;28;20707;-80
2022/10/09 10:17:59;;;;;;;0.50;0.50;;;14.50;89.80;;;;;;5030381;28;20733;-80
2022/10/09 10:20:27;;;;;;;1.20;0.90;;;14.60;88.50;;;;;;5031087;28;20614;-80
2022/10/09 10:22:56;;;;;;;1.70;1.30;;;14.70;87.30;;;;;;5029775;28;20637;-79
2022/10/09 10:25:27;;;;;;;1.13;0.80;;;14.70;88.70;;;;;;5030162;28;20659;-80
2022/10/09 10:28:01;;;;;;;0.77;0.77;;;14.70;86.80;;;;;;5030358;28;20629;-81
2022/10/09 10:30:31;;;;;;;0.90;0.90;;;14.70;86.20;;;;;;5030729;28;20625;-80
2022/10/09 10:33:03;;;;;;;1.17;1.10;;;14.70;86.90;;;;;;5030567;28;20633;-80
2022/10/09 10:35:33;;;;;;;0.87;0.73;;;14.80;87.50;;;;;;5030665;28;20621;-81
2022/10/09 10:38:05;;;;;;;1.67;0.97;;;14.90;84.70;;;;;;5029802;28;20607;-80
2022/10/09 10:40:36;;;;;;;0.90;0.90;;;15.00;83.10;;;;;;5029715;28;20689;-81
2022/10/09 10:43:15;;;;;;;0.60;0.53;;;15.00;83.60;;;;;;5030870;28;20725;-80
2022/10/09 10:45:57;;;;;;;1.27;1.00;;;14.80;85.00;;;;;;5030362;28;21080;-81
2022/10/09 10:48:28;;;;;;;1.67;0.67;;;14.80;84.50;;;;;;5029845;28;20631;-81
2022/10/09 10:51:03;;;;;;;2.13;1.20;;;14.90;85.70;;;;;;5030552;28;21043;-80
2022/10/09 10:53:40;;;;;;;0.50;0.47;;;14.90;85.20;;;;;;5030451;28;20725;-81
2022/10/09 10:56:14;;;;;;;0.73;0.73;;;14.90;85.50;;;;;;5029736;28;21220;-80
2022/10/09 10:58:50;;;;;;;0.57;0.50;;;14.90;84.30;;;;;;5029536;28;20629;-80
2022/10/09 11:01:29;;;;;;;1.30;0.93;;;15.00;83.70;;;;;;5010883;28;20628;-80
2022/10/09 11:04:32;;;;;;;1.03;0.73;;;15.10;82.30;;;;;;5020368;28;20734;-80
2022/10/09 11:07:08;;;;;;;1.60;0.90;;;15.10;81.60;;;;;;5026929;28;20674;-80
2022/10/09 11:09:44;;;;;;;0.70;0.70;;;15.10;80.90;;;;;;5029797;28;21165;-79
2022/10/09 11:12:17;;;;;;;1.23;1.13;;;15.10;80.50;;;;;;5029611;28;21168;-80
2022/10/09 11:14:52;;;;;;;0.63;0.63;;;15.00;80.60;;;;;;5030400;28;20623;-80
2022/10/09 11:17:28;;;;;;;1.27;0.87;;;15.10;80.60;;;;;;5029002;28;20661;-80
2022/10/09 11:20:10;;;;;;;0.80;0.80;;;15.10;80.20;;;;;;5029618;28;20626;-80
2022/10/09 11:22:48;;;;;;;0.53;0.50;;;15.10;80.30;;;;;;5029029;28;20979;-80
2022/10/09 11:25:25;;;;;;;0.97;0.97;;;15.10;79.20;;;;;;5010184;28;20620;-80
2022/10/09 11:27:56;;;;;;;2.30;1.20;;;15.10;80.00;;;;;;5008644;28;20619;-81
2022/10/09 11:30:24;;;;;;;0.60;0.60;;;15.20;82.20;;;;;;5010222;28;20974;-80
2022/10/09 11:32:57;;;;;;;1.50;1.03;;;15.30;79.90;;;;;;5009888;28;20624;-80
2022/10/09 11:35:26;;;;;;;1.00;0.90;;;15.30;80.40;;;;;;5010126;28;20608;-79
2022/10/09 11:37:59;;;;;;;0.90;0.73;;;15.40;79.20;;;;;;5009293;28;20662;-79
2022/10/09 11:40:32;;;;;;;3.77;0.83;;;15.30;80.10;;;;;;5009646;28;20627;-79
2022/10/09 11:43:21;;;;;;;0.70;0.60;;;15.20;79.70;;;;;;5009697;28;20662;-79
2022/10/09 11:45:52;;;;;;;1.33;0.90;;;15.30;78.90;;;;;;5009026;28;20619;-80
2022/10/09 11:48:30;;;;;;;2.10;0.60;;;15.20;79.40;;;;;;5008555;28;20719;-80
2022/10/09 11:51:04;;;;;;;0.60;0.60;;;15.20;79.50;;;;;;5009610;28;20630;-80
2022/10/09 11:53:33;;;;;;;0.70;0.70;;;15.40;79.10;;;;;;5008895;28;20670;-81
2022/10/09 11:56:04;;;;;;;1.43;0.90;;;15.30;80.90;;;;;;5008908;28;20616;-79
2022/10/09 11:58:32;;;;;;;1.03;0.70;;;15.30;81.00;;;;;;5015169;28;20627;-81
2022/10/09 12:01:11;;;;;;;0.67;0.50;;;15.40;80.00;;;;;;5028669;28;20979;-79
2022/10/09 12:03:40;;;;;;;0.93;0.77;;;15.30;78.80;;;;;;5028947;28;20684;-78
2022/10/09 12:06:10;;;;;;;0.57;0.57;;;15.40;78.30;;;;;;5029398;28;20637;-80
2022/10/09 12:08:39;;;;;;;0.63;0.63;;;15.40;78.80;;;;;;5027852;28;20734;-79
2022/10/09 12:11:13;;;;;;;0.93;0.60;;;15.40;78.40;;;;;;5027896;28;20611;-80
2022/10/09 12:13:50;;;;;;;0.97;0.73;;;15.40;78.50;;;;;;5027530;28;20618;-79
2022/10/09 12:16:36;;;;;;;1.27;1.00;;;15.40;77.30;;;;;;5028601;28;20627;-79
2022/10/09 12:19:11;;;;;;;0.50;0.50;;;15.50;77.90;;;;;;5027125;28;20653;-80
2022/10/09 12:21:44;;;;;;;0.50;0.50;;;15.50;77.30;;;;;;5027978;28;21083;-81
2022/10/09 12:24:20;;;;;;;0.50;0.50;;;15.50;78.00;;;;;;5035216;28;20752;-80
2022/10/09 12:26:48;;;;;;;0.70;0.70;;;15.50;77.50;;;;;;5028293;28;20661;-79
2022/10/09 12:29:23;;;;;;;0.70;0.70;;;15.60;77.20;;;;;;5028405;28;20716;-80
2022/10/09 12:31:52;;;;;;;1.30;0.60;;;15.50;78.30;;;;;;5028472;28;21208;-79
2022/10/09 12:34:24;;;;;;;0.80;0.80;;;15.50;79.10;;;;;;5029515;28;20988;-80
2022/10/09 12:36:51;;;;;;;1.03;0.93;;;15.50;77.90;;;;;;5029319;28;20651;-79
2022/10/09 12:39:20;;;;;;;0.60;0.57;;;15.50;76.80;;;;;;5028186;28;20671;-79
2022/10/09 12:41:50;;;;;;;1.23;0.60;;;15.50;77.40;;;;;;5028667;28;20750;-79
2022/10/09 12:44:25;;;;;;;0.53;0.53;;;15.60;76.70;;;;;;5028317;28;20623;-80
2022/10/09 12:46:52;;;;;;;1.43;0.80;;;15.50;76.80;;;;;;5027765;28;20658;-80
2022/10/09 12:49:24;;;;;;;0.67;0.50;;;15.50;77.50;;;;;;5027756;28;20992;-80
2022/10/09 12:51:54;;;;;;;1.43;0.73;;;15.60;78.00;;;;;;5028324;28;21110;-80
2022/10/09 12:54:23;;;;;;;1.17;0.60;;;15.60;79.60;;;;;;5028296;28;20626;-80
2022/10/09 12:56:51;;;;;;;4.23;0.87;;;15.60;78.40;;;;;;5028496;28;20648;-79
2022/10/09 12:59:20;;;;;;;0.60;0.50;;;15.70;78.00;;;;;;5028525;28;20633;-80
2022/10/09 13:01:49;;;;;;;1.03;0.90;;;15.80;77.50;;;;;;5028621;28;20934;-80
2022/10/09 13:04:30;;;;;;;0.77;0.77;;;15.70;77.10;;;;;;5016699;28;20631;-80
2022/10/09 13:06:58;;;;;;;1.40;1.00;;;15.80;77.50;;;;;;5012025;28;21209;-80